sensor_id;sensor_type;location;lat;lon;timestamp;temperature;humidity
28614;DHT22;15806;53.548;9.964;2023-03-23T00:01:04;11.90;99.90
28614;DHT22;15806;53.548;9.964;2023-03-23T00:02:45;12.00;99.90
28614;DHT22;15806;53.548;9.964;2023-03-23T00:04:26;12.10;99.90
28614;DHT22;15806;53.548;9.964;2023-03-23T00:06:07;12.10;99.90
28614;DHT22;15806;53.548;9.964;2023-03-23T00:07:47;12.20;99.90
28614;DHT22;15806;53.548;9.964;2023-03-23T00:09:28;12.30;99.90
28614;DHT22;15806;53.548;9.964;2023-03-23T00:11:09;12.30;99.90
28614;DHT22;15806;53.548;9.964;2023-03-23T00:12:49;12.40;99.90
28614;DHT22;15806;53.548;9.964;2023-03-23T00:14:31;12.50;99.90
28614;DHT22;15806;53.548;9.964;2023-03-23T00:16:13;12.60;99.90
28614;DHT22;15806;53.548;9.964;2023-03-23T00:17:54;12.60;99.90
28614;DHT22;15806;53.548;9.964;2023-03-23T00:19:34;12.60;99.90
28614;DHT22;15806;53.548;9.964;2023-03-23T00:21:15;12.70;99.90
28614;DHT22;15806;53.548;9.964;2023-03-23T00:22:55;12.80;99.90
28614;DHT22;15806;53.548;9.964;2023-03-23T00:24:36;13.00;99.90
28614;DHT22;15806;53.548;9.964;2023-03-23T00:26:17;13.10;99.90
28614;DHT22;15806;53.548;9.964;2023-03-23T00:27:58;13.20;99.90
28614;DHT22;15806;53.548;9.964;2023-03-23T00:29:38;13.10;99.90
28614;DHT22;15806;53.548;9.964;2023-03-23T00:31:19;13.00;99.90
28614;DHT22;15806;53.548;9.964;2023-03-23T00:32:59;13.30;99.90
28614;DHT22;15806;53.548;9.964;2023-03-23T00:34:41;13.30;99.90
28614;DHT22;15806;53.548;9.964;2023-03-23T00:36:22;13.10;99.90
28614;DHT22;15806;53.548;9.964;2023-03-23T00:38:02;13.20;99.90
28614;DHT22;15806;53.548;9.964;2023-03-23T00:39:43;13.10;99.90
28614;DHT22;15806;53.548;9.964;2023-03-23T00:41:24;13.40;99.90
28614;DHT22;15806;53.548;9.964;2023-03-23T00:43:05;13.40;99.90
28614;DHT22;15806;53.548;9.964;2023-03-23T00:44:45;13.20;99.90
28614;DHT22;15806;53.548;9.964;2023-03-23T00:46:26;13.40;99.90
28614;DHT22;15806;53.548;9.964;2023-03-23T00:48:07;13.40;99.90
28614;DHT22;15806;53.548;9.964;2023-03-23T00:49:47;13.30;99.90
28614;DHT22;15806;53.548;9.964;2023-03-23T00:51:28;13.40;99.90
28614;DHT22;15806;53.548;9.964;2023-03-23T00:53:08;13.20;99.90
28614;DHT22;15806;53.548;9.964;2023-03-23T00:54:49;13.30;99.90
28614;DHT22;15806;53.548;9.964;2023-03-23T00:56:29;13.20;99.90
28614;DHT22;15806;53.548;9.964;2023-03-23T00:58:10;13.20;99.90
28614;DHT22;15806;53.548;9.964;2023-03-23T00:59:51;13.10;99.90
28614;DHT22;15806;53.548;9.964;2023-03-23T01:01:32;13.20;99.90
28614;DHT22;15806;53.548;9.964;2023-03-23T01:03:13;13.10;99.90
28614;DHT22;15806;53.548;9.964;2023-03-23T01:04:53;13.10;99.90
28614;DHT22;15806;53.548;9.964;2023-03-23T01:06:36;13.20;99.90
28614;DHT22;15806;53.548;9.964;2023-03-23T01:08:17;13.20;99.90
28614;DHT22;15806;53.548;9.964;2023-03-23T01:09:58;13.20;99.90
28614;DHT22;15806;53.548;9.964;2023-03-23T01:11:38;13.00;99.90
28614;DHT22;15806;53.548;9.964;2023-03-23T01:13:19;13.10;99.90
28614;DHT22;15806;53.548;9.964;2023-03-23T01:14:59;13.00;99.90
28614;DHT22;15806;53.548;9.964;2023-03-23T01:16:40;12.90;99.90
28614;DHT22;15806;53.548;9.964;2023-03-23T01:18:20;13.20;99.90
28614;DHT22;15806;53.548;9.964;2023-03-23T01:20:01;13.00;99.90
28614;DHT22;15806;53.548;9.964;2023-03-23T01:21:41;13.20;99.90
28614;DHT22;15806;53.548;9.964;2023-03-23T01:23:22;13.10;99.90
28614;DHT22;15806;53.548;9.964;2023-03-23T01:25:04;13.10;99.90
28614;DHT22;15806;53.548;9.964;2023-03-23T01:26:44;13.10;99.90
28614;DHT22;15806;53.548;9.964;2023-03-23T01:28:25;13.10;99.90
28614;DHT22;15806;53.548;9.964;2023-03-23T01:30:08;13.20;99.90
28614;DHT22;15806;53.548;9.964;2023-03-23T01:31:50;13.10;99.90
28614;DHT22;15806;53.548;9.964;2023-03-23T01:33:31;13.30;99.90
28614;DHT22;15806;53.548;9.964;2023-03-23T01:35:13;13.20;99.90
28614;DHT22;15806;53.548;9.964;2023-03-23T01:36:53;13.20;99.90
28614;DHT22;15806;53.548;9.964;2023-03-23T01:38:34;13.40;99.90
28614;DHT22;15806;53.548;9.964;2023-03-23T01:40:15;13.20;99.90
28614;DHT22;15806;53.548;9.964;2023-03-23T01:41:56;13.40;99.90
28614;DHT22;15806;53.548;9.964;2023-03-23T01:44:06;13.20;99.90
28614;DHT22;15806;53.548;9.964;2023-03-23T01:45:47;13.40;99.90
28614;DHT22;15806;53.548;9.964;2023-03-23T01:47:28;13.30;99.90
28614;DHT22;15806;53.548;9.964;2023-03-23T01:49:15;13.60;99.90
28614;DHT22;15806;53.548;9.964;2023-03-23T01:51:02;13.70;99.90
28614;DHT22;15806;53.548;9.964;2023-03-23T01:52:43;13.40;99.90
28614;DHT22;15806;53.548;9.964;2023-03-23T01:54:24;13.70;99.90
28614;DHT22;15806;53.548;9.964;2023-03-23T01:56:07;13.70;99.90
28614;DHT22;15806;53.548;9.964;2023-03-23T01:57:49;13.70;99.90
28614;DHT22;15806;53.548;9.964;2023-03-23T01:59:32;13.50;99.90
28614;DHT22;15806;53.548;9.964;2023-03-23T02:01:14;13.80;99.90
28614;DHT22;15806;53.548;9.964;2023-03-23T02:02:55;13.50;99.90
28614;DHT22;15806;53.548;9.964;2023-03-23T02:04:36;13.50;99.90
28614;DHT22;15806;53.548;9.964;2023-03-23T02:06:17;13.50;99.90
28614;DHT22;15806;53.548;9.964;2023-03-23T02:08:00;13.70;99.90
28614;DHT22;15806;53.548;9.964;2023-03-23T02:09:41;13.60;99.90
28614;DHT22;15806;53.548;9.964;2023-03-23T02:11:22;13.70;99.90
28614;DHT22;15806;53.548;9.964;2023-03-23T02:13:05;13.50;99.90
28614;DHT22;15806;53.548;9.964;2023-03-23T02:14:46;13.70;99.90
28614;DHT22;15806;53.548;9.964;2023-03-23T02:21:28;13.70;99.90
28614;DHT22;15806;53.548;9.964;2023-03-23T02:23:33;13.70;99.90
28614;DHT22;15806;53.548;9.964;2023-03-23T02:27:39;13.80;99.90
28614;DHT22;15806;53.548;9.964;2023-03-23T02:35:29;14.10;99.90
28614;DHT22;15806;53.548;9.964;2023-03-23T02:37:38;14.30;99.90
28614;DHT22;15806;53.548;9.964;2023-03-23T02:39:25;14.40;99.90
28614;DHT22;15806;53.548;9.964;2023-03-23T02:41:10;14.50;99.90
28614;DHT22;15806;53.548;9.964;2023-03-23T02:42:53;14.50;99.90
28614;DHT22;15806;53.548;9.964;2023-03-23T02:44:37;14.50;99.90
28614;DHT22;15806;53.548;9.964;2023-03-23T02:46:20;14.20;99.90
28614;DHT22;15806;53.548;9.964;2023-03-23T02:48:04;14.20;99.90
28614;DHT22;15806;53.548;9.964;2023-03-23T02:49:48;14.50;99.90
28614;DHT22;15806;53.548;9.964;2023-03-23T02:51:29;14.30;99.90
28614;DHT22;15806;53.548;9.964;2023-03-23T02:53:12;14.30;99.90
28614;DHT22;15806;53.548;9.964;2023-03-23T02:54:55;14.40;99.90
28614;DHT22;15806;53.548;9.964;2023-03-23T02:56:36;14.30;99.90
28614;DHT22;15806;53.548;9.964;2023-03-23T02:58:19;14.30;99.90
28614;DHT22;15806;53.548;9.964;2023-03-23T02:59:59;14.50;99.90
28614;DHT22;15806;53.548;9.964;2023-03-23T03:03:23;14.50;99.90
28614;DHT22;15806;53.548;9.964;2023-03-23T03:09:40;14.40;99.90
28614;DHT22;15806;53.548;9.964;2023-03-23T03:11:22;14.30;99.90
28614;DHT22;15806;53.548;9.964;2023-03-23T03:15:12;14.10;99.90
28614;DHT22;15806;53.548;9.964;2023-03-23T03:17:10;14.10;99.90
28614;DHT22;15806;53.548;9.964;2023-03-23T03:20:43;13.90;99.90
28614;DHT22;15806;53.548;9.964;2023-03-23T03:22:26;14.10;99.90
28614;DHT22;15806;53.548;9.964;2023-03-23T03:24:10;14.00;99.90
28614;DHT22;15806;53.548;9.964;2023-03-23T03:25:51;13.80;99.90
28614;DHT22;15806;53.548;9.964;2023-03-23T03:27:34;13.90;99.90
28614;DHT22;15806;53.548;9.964;2023-03-23T03:29:16;13.80;99.90
28614;DHT22;15806;53.548;9.964;2023-03-23T03:31:01;13.80;99.90
28614;DHT22;15806;53.548;9.964;2023-03-23T03:32:53;13.70;99.90
28614;DHT22;15806;53.548;9.964;2023-03-23T03:34:34;13.50;99.90
28614;DHT22;15806;53.548;9.964;2023-03-23T03:36:20;13.60;99.90
28614;DHT22;15806;53.548;9.964;2023-03-23T03:38:07;13.30;99.90
28614;DHT22;15806;53.548;9.964;2023-03-23T03:39:47;13.50;99.90
28614;DHT22;15806;53.548;9.964;2023-03-23T03:41:28;13.30;99.90
28614;DHT22;15806;53.548;9.964;2023-03-23T03:43:08;13.30;99.90
28614;DHT22;15806;53.548;9.964;2023-03-23T03:44:49;13.30;99.90
28614;DHT22;15806;53.548;9.964;2023-03-23T03:46:29;13.30;99.90
28614;DHT22;15806;53.548;9.964;2023-03-23T03:48:10;13.20;99.90
28614;DHT22;15806;53.548;9.964;2023-03-23T03:49:51;13.40;99.90
28614;DHT22;15806;53.548;9.964;2023-03-23T03:51:32;13.30;99.90
28614;DHT22;15806;53.548;9.964;2023-03-23T03:53:14;13.30;99.90
28614;DHT22;15806;53.548;9.964;2023-03-23T03:54:55;13.40;99.90
28614;DHT22;15806;53.548;9.964;2023-03-23T03:56:35;13.20;99.90
28614;DHT22;15806;53.548;9.964;2023-03-23T03:58:16;13.40;99.90
28614;DHT22;15806;53.548;9.964;2023-03-23T03:59:57;13.40;99.90
28614;DHT22;15806;53.548;9.964;2023-03-23T04:01:37;13.30;99.90
28614;DHT22;15806;53.548;9.964;2023-03-23T04:03:18;13.30;99.90
28614;DHT22;15806;53.548;9.964;2023-03-23T04:04:59;13.20;99.90
28614;DHT22;15806;53.548;9.964;2023-03-23T04:06:39;13.30;99.90
28614;DHT22;15806;53.548;9.964;2023-03-23T04:08:20;13.30;99.90
28614;DHT22;15806;53.548;9.964;2023-03-23T04:10:01;13.30;99.90
28614;DHT22;15806;53.548;9.964;2023-03-23T04:11:41;13.10;99.90
28614;DHT22;15806;53.548;9.964;2023-03-23T04:13:22;13.20;99.90
28614;DHT22;15806;53.548;9.964;2023-03-23T04:15:03;13.20;99.90
28614;DHT22;15806;53.548;9.964;2023-03-23T04:16:44;13.10;99.90
28614;DHT22;15806;53.548;9.964;2023-03-23T04:18:25;13.10;99.90
28614;DHT22;15806;53.548;9.964;2023-03-23T04:20:07;13.10;99.90
28614;DHT22;15806;53.548;9.964;2023-03-23T04:21:48;13.00;99.90
28614;DHT22;15806;53.548;9.964;2023-03-23T04:23:30;13.00;99.90
28614;DHT22;15806;53.548;9.964;2023-03-23T04:25:12;13.10;99.90
28614;DHT22;15806;53.548;9.964;2023-03-23T04:26:52;13.00;99.90
28614;DHT22;15806;53.548;9.964;2023-03-23T04:28:33;13.10;99.90
28614;DHT22;15806;53.548;9.964;2023-03-23T04:30:14;13.10;99.90
28614;DHT22;15806;53.548;9.964;2023-03-23T04:31:54;13.10;99.90
28614;DHT22;15806;53.548;9.964;2023-03-23T04:33:35;13.10;99.90
28614;DHT22;15806;53.548;9.964;2023-03-23T04:35:15;13.00;99.90
28614;DHT22;15806;53.548;9.964;2023-03-23T04:36:56;13.00;99.90
28614;DHT22;15806;53.548;9.964;2023-03-23T04:38:37;13.00;99.90
28614;DHT22;15806;53.548;9.964;2023-03-23T04:40:18;13.00;99.90
28614;DHT22;15806;53.548;9.964;2023-03-23T04:41:58;13.00;99.90
28614;DHT22;15806;53.548;9.964;2023-03-23T04:43:39;12.90;99.90
28614;DHT22;15806;53.548;9.964;2023-03-23T04:45:21;12.90;99.90
28614;DHT22;15806;53.548;9.964;2023-03-23T04:47:02;12.80;99.90
28614;DHT22;15806;53.548;9.964;2023-03-23T04:48:42;12.70;99.90
28614;DHT22;15806;53.548;9.964;2023-03-23T04:50:26;12.60;99.90
28614;DHT22;15806;53.548;9.964;2023-03-23T04:52:08;12.60;99.90
28614;DHT22;15806;53.548;9.964;2023-03-23T04:53:48;12.60;99.90
28614;DHT22;15806;53.548;9.964;2023-03-23T04:55:32;12.60;99.90
28614;DHT22;15806;53.548;9.964;2023-03-23T04:57:13;12.60;99.90
28614;DHT22;15806;53.548;9.964;2023-03-23T04:58:54;12.50;99.90
28614;DHT22;15806;53.548;9.964;2023-03-23T05:00:35;12.50;99.90
28614;DHT22;15806;53.548;9.964;2023-03-23T05:02:16;12.50;99.90
28614;DHT22;15806;53.548;9.964;2023-03-23T05:03:56;12.50;99.90
28614;DHT22;15806;53.548;9.964;2023-03-23T05:05:40;12.50;99.90
28614;DHT22;15806;53.548;9.964;2023-03-23T05:07:20;12.50;99.90
28614;DHT22;15806;53.548;9.964;2023-03-23T05:09:01;12.50;99.90
28614;DHT22;15806;53.548;9.964;2023-03-23T05:10:41;12.50;99.90
28614;DHT22;15806;53.548;9.964;2023-03-23T05:12:22;12.50;99.90
28614;DHT22;15806;53.548;9.964;2023-03-23T05:14:04;12.50;99.90
28614;DHT22;15806;53.548;9.964;2023-03-23T05:15:44;12.50;99.90
28614;DHT22;15806;53.548;9.964;2023-03-23T05:17:25;12.50;99.90
28614;DHT22;15806;53.548;9.964;2023-03-23T05:19:06;12.60;99.90
28614;DHT22;15806;53.548;9.964;2023-03-23T05:20:46;12.60;99.90
28614;DHT22;15806;53.548;9.964;2023-03-23T05:22:27;12.60;99.90
28614;DHT22;15806;53.548;9.964;2023-03-23T05:24:08;12.60;99.90
28614;DHT22;15806;53.548;9.964;2023-03-23T05:25:56;12.60;99.90
28614;DHT22;15806;53.548;9.964;2023-03-23T05:27:37;12.60;99.90
28614;DHT22;15806;53.548;9.964;2023-03-23T05:29:18;12.60;99.90
28614;DHT22;15806;53.548;9.964;2023-03-23T05:30:58;12.60;99.90
28614;DHT22;15806;53.548;9.964;2023-03-23T05:32:39;12.60;99.90
28614;DHT22;15806;53.548;9.964;2023-03-23T05:34:19;12.70;99.90
28614;DHT22;15806;53.548;9.964;2023-03-23T05:36:00;12.70;99.90
28614;DHT22;15806;53.548;9.964;2023-03-23T05:37:42;12.70;99.90
28614;DHT22;15806;53.548;9.964;2023-03-23T05:39:22;12.60;99.90
28614;DHT22;15806;53.548;9.964;2023-03-23T05:41:03;12.60;99.90
28614;DHT22;15806;53.548;9.964;2023-03-23T05:42:44;12.60;99.90
28614;DHT22;15806;53.548;9.964;2023-03-23T05:44:24;12.60;99.90
28614;DHT22;15806;53.548;9.964;2023-03-23T05:46:05;12.70;99.90
28614;DHT22;15806;53.548;9.964;2023-03-23T05:47:47;12.60;99.90
28614;DHT22;15806;53.548;9.964;2023-03-23T05:49:27;12.70;99.90
28614;DHT22;15806;53.548;9.964;2023-03-23T05:51:08;12.60;99.90
28614;DHT22;15806;53.548;9.964;2023-03-23T05:52:48;12.60;99.90
28614;DHT22;15806;53.548;9.964;2023-03-23T05:54:29;12.60;99.90
28614;DHT22;15806;53.548;9.964;2023-03-23T05:56:10;12.60;99.90
28614;DHT22;15806;53.548;9.964;2023-03-23T05:57:50;12.60;99.90
28614;DHT22;15806;53.548;9.964;2023-03-23T05:59:31;12.60;99.90
28614;DHT22;15806;53.548;9.964;2023-03-23T06:01:11;12.60;99.90
28614;DHT22;15806;53.548;9.964;2023-03-23T06:02:55;12.60;99.90
28614;DHT22;15806;53.548;9.964;2023-03-23T06:04:36;12.50;99.90
28614;DHT22;15806;53.548;9.964;2023-03-23T06:06:16;12.50;99.90
28614;DHT22;15806;53.548;9.964;2023-03-23T06:07:57;12.50;99.90
28614;DHT22;15806;53.548;9.964;2023-03-23T06:09:38;12.50;99.90
28614;DHT22;15806;53.548;9.964;2023-03-23T06:11:18;12.50;99.90
28614;DHT22;15806;53.548;9.964;2023-03-23T06:12:59;12.50;99.90
28614;DHT22;15806;53.548;9.964;2023-03-23T06:14:39;12.40;99.90
28614;DHT22;15806;53.548;9.964;2023-03-23T06:16:20;12.40;99.90
28614;DHT22;15806;53.548;9.964;2023-03-23T06:18:02;12.40;99.90
28614;DHT22;15806;53.548;9.964;2023-03-23T06:19:43;12.40;99.90
28614;DHT22;15806;53.548;9.964;2023-03-23T06:21:24;12.40;99.90
28614;DHT22;15806;53.548;9.964;2023-03-23T06:23:05;12.40;99.90
28614;DHT22;15806;53.548;9.964;2023-03-23T06:24:45;12.40;99.90
28614;DHT22;15806;53.548;9.964;2023-03-23T06:26:30;12.40;99.90
28614;DHT22;15806;53.548;9.964;2023-03-23T06:28:11;12.40;99.90
28614;DHT22;15806;53.548;9.964;2023-03-23T06:29:51;12.40;99.90
28614;DHT22;15806;53.548;9.964;2023-03-23T06:31:33;12.40;99.90
28614;DHT22;15806;53.548;9.964;2023-03-23T06:33:14;12.40;99.90
28614;DHT22;15806;53.548;9.964;2023-03-23T06:34:54;12.40;99.90
28614;DHT22;15806;53.548;9.964;2023-03-23T06:36:36;12.40;99.90
28614;DHT22;15806;53.548;9.964;2023-03-23T06:38:16;12.40;99.90
28614;DHT22;15806;53.548;9.964;2023-03-23T06:39:57;12.40;99.90
28614;DHT22;15806;53.548;9.964;2023-03-23T06:41:38;12.40;99.90
28614;DHT22;15806;53.548;9.964;2023-03-23T06:43:18;12.40;99.90
28614;DHT22;15806;53.548;9.964;2023-03-23T06:44:59;12.40;99.90
28614;DHT22;15806;53.548;9.964;2023-03-23T06:46:41;12.30;99.90
28614;DHT22;15806;53.548;9.964;2023-03-23T06:48:22;12.40;99.90
28614;DHT22;15806;53.548;9.964;2023-03-23T06:50:03;12.30;99.90
28614;DHT22;15806;53.548;9.964;2023-03-23T06:51:43;12.30;99.90
28614;DHT22;15806;53.548;9.964;2023-03-23T06:53:24;12.30;99.90
28614;DHT22;15806;53.548;9.964;2023-03-23T06:55:05;12.30;99.90
28614;DHT22;15806;53.548;9.964;2023-03-23T06:56:45;12.30;99.90
28614;DHT22;15806;53.548;9.964;2023-03-23T06:58:26;12.30;99.90
28614;DHT22;15806;53.548;9.964;2023-03-23T07:00:09;12.30;99.90
28614;DHT22;15806;53.548;9.964;2023-03-23T07:01:50;12.30;99.90
28614;DHT22;15806;53.548;9.964;2023-03-23T07:03:31;12.30;99.90
28614;DHT22;15806;53.548;9.964;2023-03-23T07:05:12;12.30;99.90
28614;DHT22;15806;53.548;9.964;2023-03-23T07:06:52;12.30;99.90
28614;DHT22;15806;53.548;9.964;2023-03-23T07:08:33;12.30;99.90
28614;DHT22;15806;53.548;9.964;2023-03-23T07:10:14;12.30;99.90
28614;DHT22;15806;53.548;9.964;2023-03-23T07:11:54;12.30;99.90
28614;DHT22;15806;53.548;9.964;2023-03-23T07:13:35;12.30;99.90
28614;DHT22;15806;53.548;9.964;2023-03-23T07:15:15;12.30;99.90
28614;DHT22;15806;53.548;9.964;2023-03-23T07:16:56;12.30;99.90
28614;DHT22;15806;53.548;9.964;2023-03-23T07:18:36;12.30;99.90
28614;DHT22;15806;53.548;9.964;2023-03-23T07:20:17;12.30;99.90
28614;DHT22;15806;53.548;9.964;2023-03-23T07:22:00;12.30;99.90
28614;DHT22;15806;53.548;9.964;2023-03-23T07:23:41;12.30;99.90
28614;DHT22;15806;53.548;9.964;2023-03-23T07:25:22;12.30;99.90
28614;DHT22;15806;53.548;9.964;2023-03-23T07:27:02;12.40;99.90
28614;DHT22;15806;53.548;9.964;2023-03-23T07:28:43;12.40;99.90
28614;DHT22;15806;53.548;9.964;2023-03-23T07:30:23;12.40;99.90
28614;DHT22;15806;53.548;9.964;2023-03-23T07:32:05;12.40;99.90
28614;DHT22;15806;53.548;9.964;2023-03-23T07:33:46;12.40;99.90
28614;DHT22;15806;53.548;9.964;2023-03-23T07:35:26;12.50;99.90
28614;DHT22;15806;53.548;9.964;2023-03-23T07:37:07;12.50;99.90
28614;DHT22;15806;53.548;9.964;2023-03-23T07:38:47;12.60;99.90
28614;DHT22;15806;53.548;9.964;2023-03-23T07:40:54;12.60;99.90
28614;DHT22;15806;53.548;9.964;2023-03-23T07:42:39;12.60;99.90
28614;DHT22;15806;53.548;9.964;2023-03-23T07:44:20;12.60;99.90
28614;DHT22;15806;53.548;9.964;2023-03-23T07:46:01;12.70;99.90
28614;DHT22;15806;53.548;9.964;2023-03-23T07:47:41;12.70;99.90
28614;DHT22;15806;53.548;9.964;2023-03-23T07:49:45;12.60;99.90
28614;DHT22;15806;53.548;9.964;2023-03-23T07:51:25;12.60;99.90
28614;DHT22;15806;53.548;9.964;2023-03-23T07:53:06;12.60;99.90
28614;DHT22;15806;53.548;9.964;2023-03-23T07:54:47;12.60;99.90
28614;DHT22;15806;53.548;9.964;2023-03-23T07:56:28;12.60;99.90
28614;DHT22;15806;53.548;9.964;2023-03-23T07:58:08;12.60;99.90
28614;DHT22;15806;53.548;9.964;2023-03-23T07:59:50;12.60;99.90
28614;DHT22;15806;53.548;9.964;2023-03-23T08:01:32;12.60;99.90
28614;DHT22;15806;53.548;9.964;2023-03-23T08:03:12;12.60;99.90
28614;DHT22;15806;53.548;9.964;2023-03-23T08:04:53;12.60;99.90
28614;DHT22;15806;53.548;9.964;2023-03-23T08:06:37;12.60;99.90
28614;DHT22;15806;53.548;9.964;2023-03-23T08:08:18;12.60;99.90
28614;DHT22;15806;53.548;9.964;2023-03-23T08:10:02;12.70;99.90
28614;DHT22;15806;53.548;9.964;2023-03-23T08:11:44;12.60;99.90
28614;DHT22;15806;53.548;9.964;2023-03-23T08:13:24;12.60;99.90
28614;DHT22;15806;53.548;9.964;2023-03-23T08:15:06;12.60;99.90
28614;DHT22;15806;53.548;9.964;2023-03-23T08:16:47;12.60;99.90
28614;DHT22;15806;53.548;9.964;2023-03-23T08:18:28;12.60;99.90
28614;DHT22;15806;53.548;9.964;2023-03-23T08:20:10;12.60;99.90
28614;DHT22;15806;53.548;9.964;2023-03-23T08:21:52;12.60;99.90
28614;DHT22;15806;53.548;9.964;2023-03-23T08:23:32;12.60;99.90
28614;DHT22;15806;53.548;9.964;2023-03-23T08:25:16;12.60;99.90
28614;DHT22;15806;53.548;9.964;2023-03-23T08:26:57;12.60;99.90
28614;DHT22;15806;53.548;9.964;2023-03-23T08:28:37;12.60;99.90
28614;DHT22;15806;53.548;9.964;2023-03-23T08:30:20;12.60;99.90
28614;DHT22;15806;53.548;9.964;2023-03-23T08:32:00;12.70;99.90
28614;DHT22;15806;53.548;9.964;2023-03-23T08:33:41;12.60;99.90
28614;DHT22;15806;53.548;9.964;2023-03-23T08:35:22;12.90;99.90
28614;DHT22;15806;53.548;9.964;2023-03-23T08:37:02;12.90;99.90
28614;DHT22;15806;53.548;9.964;2023-03-23T08:38:43;12.70;99.90
28614;DHT22;15806;53.548;9.964;2023-03-23T08:40:34;12.90;99.90
28614;DHT22;15806;53.548;9.964;2023-03-23T08:42:14;12.40;99.90
28614;DHT22;15806;53.548;9.964;2023-03-23T08:43:55;12.30;99.90
28614;DHT22;15806;53.548;9.964;2023-03-23T08:45:35;12.30;99.90
28614;DHT22;15806;53.548;9.964;2023-03-23T08:47:16;12.20;99.90
28614;DHT22;15806;53.548;9.964;2023-03-23T08:48:57;12.20;99.90
28614;DHT22;15806;53.548;9.964;2023-03-23T08:50:37;12.30;99.90
28614;DHT22;15806;53.548;9.964;2023-03-23T08:52:19;12.30;99.90
28614;DHT22;15806;53.548;9.964;2023-03-23T08:53:59;12.40;99.90
28614;DHT22;15806;53.548;9.964;2023-03-23T08:55:40;12.50;99.90
28614;DHT22;15806;53.548;9.964;2023-03-23T08:57:22;12.30;99.90
28614;DHT22;15806;53.548;9.964;2023-03-23T08:59:03;12.40;99.90
28614;DHT22;15806;53.548;9.964;2023-03-23T09:00:43;12.50;99.90
28614;DHT22;15806;53.548;9.964;2023-03-23T09:02:24;12.60;99.90
28614;DHT22;15806;53.548;9.964;2023-03-23T09:04:04;12.70;99.90
28614;DHT22;15806;53.548;9.964;2023-03-23T09:05:45;12.50;99.90
28614;DHT22;15806;53.548;9.964;2023-03-23T09:07:26;12.50;99.90
28614;DHT22;15806;53.548;9.964;2023-03-23T09:09:06;12.40;99.90
28614;DHT22;15806;53.548;9.964;2023-03-23T09:10:47;12.50;99.90
28614;DHT22;15806;53.548;9.964;2023-03-23T09:12:27;12.50;99.90
28614;DHT22;15806;53.548;9.964;2023-03-23T09:14:08;12.50;99.90
28614;DHT22;15806;53.548;9.964;2023-03-23T09:15:48;12.30;99.90
28614;DHT22;15806;53.548;9.964;2023-03-23T09:17:29;12.20;99.90
28614;DHT22;15806;53.548;9.964;2023-03-23T09:19:11;12.00;99.90
28614;DHT22;15806;53.548;9.964;2023-03-23T09:20:54;12.00;99.90
28614;DHT22;15806;53.548;9.964;2023-03-23T09:22:34;12.00;99.90
28614;DHT22;15806;53.548;9.964;2023-03-23T09:24:15;12.00;99.90
28614;DHT22;15806;53.548;9.964;2023-03-23T09:25:57;12.10;99.90
28614;DHT22;15806;53.548;9.964;2023-03-23T09:27:40;12.10;99.90
28614;DHT22;15806;53.548;9.964;2023-03-23T09:29:21;12.10;99.90
28614;DHT22;15806;53.548;9.964;2023-03-23T09:31:01;12.00;99.90
28614;DHT22;15806;53.548;9.964;2023-03-23T09:32:42;12.00;99.90
28614;DHT22;15806;53.548;9.964;2023-03-23T09:34:22;12.00;99.90
28614;DHT22;15806;53.548;9.964;2023-03-23T09:36:03;11.90;99.90
28614;DHT22;15806;53.548;9.964;2023-03-23T09:37:45;12.00;99.90
28614;DHT22;15806;53.548;9.964;2023-03-23T09:39:25;12.00;99.90
28614;DHT22;15806;53.548;9.964;2023-03-23T09:41:33;12.00;99.90
28614;DHT22;15806;53.548;9.964;2023-03-23T09:47:11;12.00;99.90
28614;DHT22;15806;53.548;9.964;2023-03-23T09:49:05;12.10;99.90
28614;DHT22;15806;53.548;9.964;2023-03-23T09:50:52;12.00;99.90
28614;DHT22;15806;53.548;9.964;2023-03-23T09:52:56;12.10;99.90
28614;DHT22;15806;53.548;9.964;2023-03-23T09:54:40;12.10;99.90
28614;DHT22;15806;53.548;9.964;2023-03-23T09:56:20;12.20;99.90
28614;DHT22;15806;53.548;9.964;2023-03-23T09:58:23;12.30;99.90
28614;DHT22;15806;53.548;9.964;2023-03-23T10:02:21;12.40;99.90
28614;DHT22;15806;53.548;9.964;2023-03-23T10:04:12;12.50;99.90
28614;DHT22;15806;53.548;9.964;2023-03-23T10:05:55;12.50;99.90
28614;DHT22;15806;53.548;9.964;2023-03-23T10:07:35;12.50;99.90
28614;DHT22;15806;53.548;9.964;2023-03-23T10:09:17;12.60;99.90
28614;DHT22;15806;53.548;9.964;2023-03-23T10:11:08;12.50;99.90
28614;DHT22;15806;53.548;9.964;2023-03-23T10:12:57;12.40;99.90
28614;DHT22;15806;53.548;9.964;2023-03-23T10:14:58;12.60;99.90
28614;DHT22;15806;53.548;9.964;2023-03-23T10:20:57;12.70;99.90
28614;DHT22;15806;53.548;9.964;2023-03-23T10:22:52;12.70;99.90
28614;DHT22;15806;53.548;9.964;2023-03-23T10:24:48;12.90;99.90
28614;DHT22;15806;53.548;9.964;2023-03-23T10:27:07;12.70;99.90
28614;DHT22;15806;53.548;9.964;2023-03-23T10:28:56;12.70;99.90
28614;DHT22;15806;53.548;9.964;2023-03-23T10:30:40;12.90;99.90
28614;DHT22;15806;53.548;9.964;2023-03-23T10:32:37;12.80;99.90
28614;DHT22;15806;53.548;9.964;2023-03-23T10:36:25;12.60;99.90
28614;DHT22;15806;53.548;9.964;2023-03-23T10:38:13;12.70;99.90
28614;DHT22;15806;53.548;9.964;2023-03-23T10:39:56;12.70;99.90
28614;DHT22;15806;53.548;9.964;2023-03-23T10:41:37;12.60;99.90
28614;DHT22;15806;53.548;9.964;2023-03-23T10:43:18;12.60;99.90
28614;DHT22;15806;53.548;9.964;2023-03-23T10:45:01;12.70;99.90
28614;DHT22;15806;53.548;9.964;2023-03-23T10:47:01;12.70;99.90
28614;DHT22;15806;53.548;9.964;2023-03-23T10:48:44;12.70;99.90
28614;DHT22;15806;53.548;9.964;2023-03-23T10:50:29;12.60;99.90
28614;DHT22;15806;53.548;9.964;2023-03-23T10:54:01;12.70;99.90
28614;DHT22;15806;53.548;9.964;2023-03-23T10:55:45;12.70;99.90
28614;DHT22;15806;53.548;9.964;2023-03-23T10:57:28;12.80;99.90
28614;DHT22;15806;53.548;9.964;2023-03-23T10:59:15;12.90;99.90
28614;DHT22;15806;53.548;9.964;2023-03-23T11:01:04;12.90;99.90
28614;DHT22;15806;53.548;9.964;2023-03-23T11:02:59;12.90;99.90
28614;DHT22;15806;53.548;9.964;2023-03-23T11:04:45;13.00;99.90
28614;DHT22;15806;53.548;9.964;2023-03-23T11:06:29;12.80;99.90
28614;DHT22;15806;53.548;9.964;2023-03-23T11:08:21;12.80;99.90
28614;DHT22;15806;53.548;9.964;2023-03-23T11:10:16;12.90;99.90
28614;DHT22;15806;53.548;9.964;2023-03-23T11:11:57;12.90;99.90
28614;DHT22;15806;53.548;9.964;2023-03-23T11:13:42;12.90;99.90
28614;DHT22;15806;53.548;9.964;2023-03-23T11:17:24;12.70;99.90
28614;DHT22;15806;53.548;9.964;2023-03-23T11:19:14;12.90;99.90
28614;DHT22;15806;53.548;9.964;2023-03-23T11:20:57;12.80;99.90
28614;DHT22;15806;53.548;9.964;2023-03-23T11:22:39;12.80;99.90
28614;DHT22;15806;53.548;9.964;2023-03-23T11:24:25;12.60;99.90
28614;DHT22;15806;53.548;9.964;2023-03-23T11:27:57;12.70;99.90
28614;DHT22;15806;53.548;9.964;2023-03-23T11:29:54;12.70;99.90